createdAt,value
2016-04-07T00:00:57.433Z,5.54
2016-04-07T00:01:50.980Z,5.56
2016-04-07T00:02:38.249Z,5.65
2016-04-07T00:03:51.064Z,5.67
2016-04-07T00:04:38.255Z,5.61
2016-04-07T00:05:38.288Z,5.62
2016-04-07T00:06:38.322Z,5.49
2016-04-07T00:07:51.044Z,5.52
2016-04-07T00:08:51.078Z,5.58
2016-04-07T00:09:38.346Z,5.51
2016-04-07T00:10:38.349Z,5.47
2016-04-07T00:11:38.367Z,5.47
2016-04-07T00:12:38.386Z,5.47
2016-04-07T00:13:51.154Z,5.43
2016-04-07T00:14:38.438Z,5.47
2016-04-07T00:15:38.455Z,5.36
2016-04-07T00:16:38.498Z,5.44
2016-04-07T00:17:51.311Z,5.43
2016-04-07T00:18:39.233Z,5.36
2016-04-07T00:19:38.670Z,5.28
2016-04-07T00:20:51.624Z,5.38
2016-04-07T00:21:38.764Z,5.34
2016-04-07T00:22:51.658Z,5.38
2016-04-07T00:23:38.692Z,5.26
2016-04-07T00:25:04.557Z,5.34
2016-04-07T00:25:38.900Z,5.31
2016-04-07T00:26:38.913Z,5.33
2016-04-07T00:27:38.984Z,5.31
2016-04-07T00:28:38.961Z,5.34
2016-04-07T00:29:51.705Z,5.31
2016-04-07T00:30:39.618Z,5.29
2016-04-07T00:31:58.240Z,5.33
2016-04-07T00:32:40.443Z,5.46
2016-04-07T00:34:04.748Z,5.31
2016-04-07T00:34:39.060Z,5.29
2016-04-07T00:35:39.128Z,5.31
2016-04-07T00:36:39.116Z,5.29
2016-04-07T00:37:39.136Z,5.26
2016-04-07T00:38:51.873Z,5.25
2016-04-07T00:39:39.221Z,5.26
2016-04-07T00:40:58.368Z,5.23
2016-04-07T00:41:39.400Z,5.23
2016-04-07T00:42:39.199Z,5.23
2016-04-07T00:43:39.624Z,5.28
2016-04-07T00:44:39.237Z,5.16
2016-04-07T00:45:39.458Z,5.19
2016-04-07T00:46:39.274Z,5.18
2016-04-07T00:47:39.292Z,5.13
2016-04-07T00:48:45.575Z,5.18
2016-04-07T00:49:45.719Z,5.18
2016-04-07T00:50:58.521Z,5.16
2016-04-07T00:51:39.334Z,5.19
2016-04-07T00:53:05.042Z,5.13
2016-04-07T00:53:52.089Z,5.13
2016-04-07T00:54:39.404Z,5.18
2016-04-07T00:55:39.407Z,5.13
2016-04-07T00:57:42.037Z,5.08
2016-04-07T00:57:54.616Z,5.12
2016-04-07T00:58:54.681Z,5.13
2016-04-07T00:59:54.667Z,5.1
2016-04-07T01:00:56.064Z,5.12
2016-04-07T01:01:54.689Z,5.12
2016-04-07T01:02:54.708Z,5.15
2016-04-07T01:03:54.694Z,5.15
2016-04-07T01:04:54.728Z,5.1
2016-04-07T01:05:54.763Z,5.13
2016-04-07T01:06:55.377Z,5.12
2016-04-07T01:07:55.411Z,5.15
2016-04-07T01:09:07.524Z,5.1
2016-04-07T01:10:07.541Z,5.08
2016-04-07T01:11:07.560Z,5.05
2016-04-07T01:12:14.047Z,5.12
2016-04-07T01:12:55.469Z,5.12
2016-04-07T01:13:54.893Z,5.01
2016-04-07T01:15:07.602Z,5.01
2016-04-07T01:15:55.508Z,5.02
2016-04-07T01:17:14.122Z,5.02
2016-04-07T01:18:20.593Z,5.05
2016-04-07T01:19:21.034Z,4.98
2016-04-07T01:19:54.940Z,5.01
2016-04-07T01:20:54.990Z,5.02
2016-04-07T01:21:54.993Z,5
2016-04-07T01:22:55.026Z,4.98
2016-04-07T01:23:55.639Z,5.07
2016-04-07T01:25:07.784Z,5.12
2016-04-07T01:25:55.769Z,5.16
2016-04-07T01:26:55.084Z,5.16
2016-04-07T01:27:58.120Z,5.16
2016-04-07T01:28:55.714Z,5.2
2016-04-07T01:29:55.092Z,5.16
2016-04-07T01:30:55.298Z,5.15
2016-04-07T01:31:55.738Z,5.12
2016-04-07T01:32:55.819Z,5.1
2016-04-07T01:33:55.166Z,5.18
2016-04-07T01:34:55.183Z,5.1
2016-04-07T01:35:55.202Z,5.07
2016-04-07T01:36:55.236Z,5
2016-04-07T01:37:55.505Z,5.05
2016-04-07T01:38:55.383Z,4.97
2016-04-07T01:39:55.260Z,5.07
2016-04-07T01:41:08.015Z,4.97
2016-04-07T01:41:55.296Z,4.98
2016-04-07T01:42:55.299Z,4.98
2016-04-07T01:43:55.333Z,5.08
2016-04-07T01:45:01.620Z,5.01
2016-04-07T01:45:55.385Z,5.08
2016-04-07T01:46:55.357Z,5.02
2016-04-07T01:47:55.421Z,5.12
2016-04-07T01:48:55.393Z,5.08
2016-04-07T01:49:55.474Z,5.07
2016-04-07T01:50:55.430Z,5.1
2016-04-07T01:51:55.636Z,5
2016-04-07T01:52:55.451Z,5.07
2016-04-07T01:54:08.315Z,5.1
2016-04-07T01:54:55.487Z,5.05
2016-04-07T01:55:55.490Z,5.07
2016-04-07T01:57:01.808Z,5.1
2016-04-07T01:58:08.264Z,5.1
2016-04-07T01:59:01.813Z,5.15
2016-04-07T01:59:55.547Z,5.01
2016-04-07T02:00:55.566Z,5.1
2016-04-07T02:01:55.600Z,5.1
2016-04-07T02:02:55.603Z,5.1
2016-04-07T02:03:55.605Z,5.04
2016-04-07T02:04:55.624Z,5.02
2016-04-07T02:05:55.658Z,5.1
2016-04-07T02:06:55.676Z,4.97
2016-04-07T02:07:55.694Z,5
2016-04-07T02:09:02.013Z,4.95
2016-04-07T02:09:55.731Z,5.05
2016-04-07T02:11:09.877Z,4.98
2016-04-07T02:11:55.815Z,4.98
2016-04-07T02:12:55.770Z,5.04
2016-04-07T02:13:55.774Z,4.98
2016-04-07T02:15:02.076Z,4.9
2016-04-07T02:15:55.794Z,4.87
2016-04-07T02:16:55.813Z,5
2016-04-07T02:17:55.846Z,4.92
2016-04-07T02:19:02.102Z,5.01
2016-04-07T02:19:55.868Z,4.95
2016-04-07T02:21:15.107Z,4.98
2016-04-07T02:21:59.001Z,5.02
2016-04-07T02:22:59.003Z,5
2016-04-07T02:24:11.756Z,5.01
2016-04-07T02:24:59.024Z,5.04
2016-04-07T02:26:18.246Z,5
2016-04-07T02:27:11.811Z,5.01
2016-04-07T02:28:30.392Z,4.97
2016-04-07T02:29:08.707Z,5.02
2016-04-07T02:30:08.632Z,4.9
2016-04-07T02:31:27.837Z,4.9
2016-04-07T02:32:14.933Z,4.9
2016-04-07T02:33:27.983Z,4.98
2016-04-07T02:34:08.705Z,4.98
2016-04-07T02:35:08.708Z,4.97
2016-04-07T02:36:14.976Z,4.92
2016-04-07T02:37:08.760Z,4.95
2016-04-07T02:38:08.762Z,4.94
2016-04-07T02:39:08.765Z,4.98
2016-04-07T02:40:08.783Z,4.94
2016-04-07T02:41:08.801Z,4.89
2016-04-07T02:42:10.241Z,5.07
2016-04-07T02:43:08.838Z,5.12
2016-04-07T02:44:11.888Z,5.05
2016-04-07T02:45:08.874Z,4.97
2016-04-07T02:46:08.877Z,4.95
2016-04-07T02:47:21.646Z,4.89
2016-04-07T02:48:08.915Z,4.9
2016-04-07T02:49:28.120Z,4.92
2016-04-07T02:50:11.998Z,4.94
2016-04-07T02:51:12.126Z,4.95
2016-04-07T02:52:24.768Z,4.9
2016-04-07T02:53:24.756Z,4.92
2016-04-07T02:54:37.727Z,5.01
2016-04-07T02:55:24.809Z,4.92
2016-04-07T02:56:12.076Z,4.98
2016-04-07T02:57:12.126Z,4.9
2016-04-07T02:58:12.112Z,4.89
2016-04-07T02:59:24.865Z,4.94
2016-04-07T03:00:12.134Z,4.92
2016-04-07T03:01:12.215Z,4.92
2016-04-07T03:02:12.764Z,4.89
2016-04-07T03:03:12.173Z,4.92
2016-04-07T03:04:24.942Z,4.95
2016-04-07T03:05:12.211Z,4.89
2016-04-07T03:06:12.244Z,4.95
2016-04-07T03:07:18.528Z,4.86
2016-04-07T03:08:12.250Z,4.9
2016-04-07T03:09:25.017Z,4.94
2016-04-07T03:10:12.911Z,4.86
2016-04-07T03:11:12.914Z,4.9
2016-04-07T03:12:25.058Z,4.84
2016-04-07T03:13:12.340Z,4.92
2016-04-07T03:14:31.562Z,4.89
2016-04-07T03:15:12.987Z,4.94
2016-04-07T03:16:12.990Z,4.89
2016-04-07T03:17:25.132Z,4.9
2016-04-07T03:18:25.151Z,4.92
2016-04-07T03:19:31.622Z,4.92
2016-04-07T03:20:31.672Z,4.95
2016-04-07T03:21:38.128Z,4.94
2016-04-07T03:22:31.677Z,4.92
2016-04-07T03:23:43.867Z,4.86
2016-04-07T03:24:27.761Z,4.94
2016-04-07T03:25:46.951Z,4.95
2016-04-07T03:26:34.048Z,4.98
2016-04-07T03:27:27.800Z,5.01
2016-04-07T03:28:27.803Z,4.92
2016-04-07T03:29:40.556Z,4.98
2016-04-07T03:30:27.839Z,5.01
2016-04-07T03:31:47.045Z,5
2016-04-07T03:32:34.111Z,5.08
2016-04-07T03:33:27.879Z,5.07
2016-04-07T03:34:27.881Z,5.07
2016-04-07T03:35:27.916Z,5.04
2016-04-07T03:36:27.934Z,5.07
2016-04-07T03:37:27.984Z,5.07
2016-04-07T03:38:27.970Z,5.07
2016-04-07T03:39:28.005Z,5.01
2016-04-07T03:40:27.976Z,5
2016-04-07T03:41:40.744Z,5.04
2016-04-07T03:42:29.450Z,4.92
2016-04-07T03:43:40.765Z,4.92
2016-04-07T03:44:28.034Z,5.12
2016-04-07T03:45:53.083Z,5.02
2016-04-07T03:46:34.336Z,4.95
2016-04-07T03:47:28.089Z,5
2016-04-07T03:48:40.840Z,4.97
2016-04-07T03:49:59.421Z,5.01
2016-04-07T03:50:47.331Z,5.05
2016-04-07T03:51:29.802Z,5.01
2016-04-07T03:54:09.155Z,5.07
2016-04-07T03:54:43.421Z,5.07
2016-04-07T03:56:58.612Z,4.95
2016-04-07T03:57:58.740Z,4.95
2016-04-07T03:59:24.323Z,4.95
2016-04-07T04:00:11.373Z,5.02
2016-04-07T04:02:18.113Z,5.07
2016-04-07T04:03:27.662Z,5.04
2016-04-07T04:04:01.994Z,5.05
2016-04-07T04:05:33.434Z,4.98
2016-04-07T04:06:08.405Z,4.97
2016-04-07T04:07:02.064Z,5.05
2016-04-07T04:08:21.270Z,5.05
2016-04-07T04:09:02.148Z,4.92
2016-04-07T04:10:27.760Z,5.05
2016-04-07T04:11:11.731Z,5.04
2016-04-07T04:12:37.344Z,4.98
2016-04-07T04:13:21.252Z,5.05
2016-04-07T04:14:21.239Z,5.08
2016-04-07T04:15:21.258Z,4.94
2016-04-07T04:16:21.291Z,4.92
2016-04-07T04:17:34.029Z,5.04
2016-04-07T04:18:21.313Z,5.08
2016-04-07T04:19:47.003Z,5.12
2016-04-07T04:20:21.333Z,4.95
2016-04-07T04:22:36.527Z,4.98
2016-04-07T04:23:36.545Z,5
2016-04-07T04:24:36.407Z,5.05
2016-04-07T04:25:49.332Z,4.89
2016-04-07T04:26:36.599Z,4.95
2016-04-07T04:27:55.806Z,4.86
2016-04-07T04:28:49.340Z,5.02
2016-04-07T04:30:08.000Z,4.98
2016-04-07T04:30:51.859Z,4.95
2016-04-07T04:31:51.894Z,4.97
2016-04-07T04:32:58.162Z,5.01
2016-04-07T04:34:04.668Z,4.89
2016-04-07T04:35:04.670Z,4.95
2016-04-07T04:36:11.158Z,4.92
2016-04-07T04:37:11.253Z,5.02
2016-04-07T04:38:14.335Z,5.01
2016-04-07T04:38:58.256Z,5.05
2016-04-07T04:40:17.450Z,4.95
2016-04-07T04:40:59.637Z,5.05
2016-04-07T04:42:24.174Z,4.98
2016-04-07T04:42:58.299Z,5.08
2016-04-07T04:45:17.494Z,4.89
2016-04-07T04:47:20.734Z,5
2016-04-07T04:49:30.365Z,4.97
2016-04-07T04:50:05.305Z,5.01
2016-04-07T04:51:04.760Z,4.97
2016-04-07T04:52:04.716Z,5.1
2016-04-07T04:53:17.469Z,5.08
2016-04-07T04:54:17.566Z,5.12
2016-04-07T04:55:04.771Z,5.19
2016-04-07T04:56:23.993Z,5.16
2016-04-07T04:57:17.527Z,5.19
2016-04-07T04:58:36.107Z,5.13
2016-04-07T04:59:30.501Z,5.12
2016-04-07T05:01:45.709Z,5.18
2016-04-07T05:02:20.025Z,5.23
2016-04-07T05:03:20.059Z,5.28
2016-04-07T05:04:20.092Z,5.26
2016-04-07T05:05:26.361Z,5.28
2016-04-07T05:06:39.332Z,5.25
2016-04-07T05:07:20.117Z,5.4
2016-04-07T05:08:20.119Z,5.4
2016-04-07T05:09:20.153Z,5.37
2016-04-07T05:10:20.155Z,5.34
2016-04-07T05:11:20.205Z,5.43
2016-04-07T05:12:20.192Z,5.46
2016-04-07T05:13:26.585Z,5.49
2016-04-07T05:14:32.964Z,5.51
2016-04-07T05:15:20.231Z,5.46
2016-04-07T05:16:20.250Z,5.4
2016-04-07T05:17:26.533Z,5.56
2016-04-07T05:18:33.021Z,5.56
2016-04-07T05:19:39.508Z,5.59
2016-04-07T05:20:39.323Z,5.61
2016-04-07T05:21:46.357Z,5.55
2016-04-07T05:22:33.063Z,5.61
2016-04-07T05:23:51.674Z,5.69
2016-04-07T05:24:35.552Z,5.67
2016-04-07T05:25:35.664Z,5.73
2016-04-07T05:26:35.604Z,5.77
2016-04-07T05:27:35.670Z,5.8
2016-04-07T05:28:35.610Z,5.88
2016-04-07T05:29:35.660Z,5.83
2016-04-07T05:30:48.381Z,5.81
2016-04-07T05:31:35.634Z,5.94
2016-04-07T05:33:01.386Z,5.97
2016-04-07T05:33:48.264Z,6.07
2016-04-07T05:35:07.614Z,6.07
2016-04-07T05:35:35.739Z,6.1
2016-04-07T05:36:35.819Z,6.07
2016-04-07T05:37:35.744Z,6.12
2016-04-07T05:38:35.809Z,6.15
2016-04-07T05:39:35.781Z,6.19
2016-04-07T05:40:35.798Z,6.2
2016-04-07T05:41:35.817Z,6.26
2016-04-07T05:42:35.835Z,6.31
2016-04-07T05:43:35.838Z,6.41
2016-04-07T05:44:42.122Z,6.34
2016-04-07T05:45:48.609Z,6.41
2016-04-07T05:46:55.205Z,6.62
2016-04-07T05:47:58.286Z,6.95
2016-04-07T05:48:58.305Z,7.53
2016-04-07T05:50:11.154Z,8.45
2016-04-07T05:50:59.747Z,9.22
2016-04-07T05:52:17.566Z,10.12
2016-04-07T05:53:14.177Z,10.82
2016-04-07T05:54:20.758Z,11.25
2016-04-07T05:55:14.214Z,11.73
2016-04-07T05:56:14.217Z,11.93
2016-04-07T05:57:20.501Z,12.39
2016-04-07T05:58:20.534Z,12.73
2016-04-07T05:59:27.006Z,13.2
2016-04-07T06:00:27.024Z,13.45
2016-04-07T06:01:33.542Z,13.27
2016-04-07T06:02:33.529Z,13.24
2016-04-07T06:03:14.376Z,13.17
2016-04-07T06:04:14.363Z,13.39
2016-04-07T06:05:14.240Z,13.64
2016-04-07T06:06:14.415Z,13.76
2016-04-07T06:07:14.433Z,14.11
2016-04-07T06:08:14.452Z,14.34
2016-04-07T06:09:14.678Z,14.26
2016-04-07T06:10:27.259Z,14.31
2016-04-07T06:11:14.544Z,14.55
2016-04-07T06:12:33.733Z,14.61
2016-04-07T06:13:27.299Z,14.81
2016-04-07T06:14:40.270Z,14.92
2016-04-07T06:15:33.585Z,15.18
2016-04-07T06:16:48.775Z,15.5
2016-04-07T06:17:48.794Z,15.88
2016-04-07T06:19:01.593Z,16.05
2016-04-07T06:20:01.596Z,16.17
2016-04-07T06:21:20.180Z,16.06
2016-04-07T06:22:04.055Z,16.21
2016-04-07T06:23:23.294Z,16.39
2016-04-07T06:24:07.203Z,16.54
2016-04-07T06:25:07.206Z,16.43
2016-04-07T06:26:07.192Z,16.44
2016-04-07T06:27:13.476Z,16.25
2016-04-07T06:28:07.260Z,16.21
2016-04-07T06:29:19.998Z,16.13
2016-04-07T06:30:07.297Z,16.12
2016-04-07T06:31:26.409Z,16.31
2016-04-07T06:32:20.209Z,16.41
2016-04-07T06:34:23.589Z,16.83
2016-04-07T06:34:36.151Z,17.01
2016-04-07T06:36:26.736Z,16.94
2016-04-07T06:36:39.298Z,17.12
2016-04-07T06:38:48.881Z,17.76
2016-04-07T06:41:29.780Z,18.23
2016-04-07T06:42:04.155Z,18.15
2016-04-07T06:44:19.351Z,17.9
2016-04-07T06:45:38.588Z,17.82
2016-04-07T06:46:48.168Z,17.91
2016-04-07T06:48:23.283Z,17.19
2016-04-07T06:49:01.533Z,16.83
2016-04-07T06:50:32.867Z,15.14
2016-04-07T06:51:42.401Z,15.1
2016-04-07T06:53:13.734Z,16.18
2016-04-07T06:54:28.955Z,17.02
2016-04-07T06:55:16.661Z,17.37
2016-04-07T06:56:00.567Z,17.57
2016-04-07T06:57:00.601Z,17.22
2016-04-07T06:59:34.985Z,17.31
2016-04-07T07:00:15.815Z,17.17
2016-04-07T07:01:47.162Z,17.79
2016-04-07T07:02:25.570Z,17.73
2016-04-07T07:06:11.004Z,16.94
2016-04-07T07:08:14.212Z,17.6
2016-04-07T07:08:48.525Z,17.98
2016-04-07T07:10:21.280Z,18.43
2016-04-07T07:10:59.483Z,18.57
2016-04-07T07:12:30.863Z,18.33
2016-04-07T07:13:09.350Z,18.24
2016-04-07T07:14:35.056Z,18.61
2016-04-07T07:15:16.466Z,18.66
2016-04-07T07:16:39.109Z,18.64
2016-04-07T07:17:18.267Z,19.34
2016-04-07T07:18:48.786Z,19.11
2016-04-07T07:19:27.038Z,19.09
2016-04-07T07:21:42.263Z,17.69
2016-04-07T07:22:42.280Z,17.14
2016-04-07T07:23:55.033Z,15.81
2016-04-07T07:24:48.895Z,15.39
2016-04-07T07:26:08.026Z,16.08
2016-04-07T07:26:51.916Z,16.29
2016-04-07T07:28:11.141Z,15.63
2016-04-07T07:29:04.688Z,15.25
2016-04-07T07:31:08.179Z,13.85
2016-04-07T07:31:51.851Z,13.37
2016-04-07T07:32:52.136Z,12.88
2016-04-07T07:34:23.459Z,12.58
2016-04-07T07:35:32.837Z,13.06
2016-04-07T07:36:07.371Z,14.08
2016-04-07T07:38:48.111Z,15.83
2016-04-07T07:39:42.103Z,15.76
2016-04-07T07:40:41.840Z,15.84
2016-04-07T07:41:54.592Z,16.05
2016-04-07T07:42:41.876Z,15.67
2016-04-07T07:44:01.145Z,14.77
2016-04-07T07:45:44.541Z,13.82
2016-04-07T07:46:19.341Z,13.87
2016-04-07T07:48:13.331Z,14.53
2016-04-07T07:48:25.784Z,14.44
2016-04-07T07:50:17.180Z,13.52
2016-04-07T07:50:42.258Z,13.27
2016-04-07T07:51:42.432Z,12.95
2016-04-07T07:52:42.638Z,12.68
2016-04-07T07:53:55.202Z,12.36
2016-04-07T07:54:55.221Z,12.3
2016-04-07T07:55:42.521Z,12.28
2016-04-07T07:57:08.276Z,12.03
2016-04-07T07:57:42.573Z,11.99
2016-04-07T07:59:45.188Z,11.62
2016-04-07T08:00:23.535Z,11.53
2016-04-07T08:03:04.540Z,11.51
2016-04-07T08:03:38.871Z,11.56
2016-04-07T08:05:10.235Z,11.44
2016-04-07T08:05:38.923Z,11.37
2016-04-07T08:06:38.940Z,11.08
2016-04-07T08:07:51.678Z,10.89
2016-04-07T08:08:39.103Z,10.95
2016-04-07T08:10:04.699Z,10.89
2016-04-07T08:10:39.109Z,10.89
2016-04-07T08:12:48.614Z,10.72
2016-04-07T08:13:48.647Z,10.8
2016-04-07T08:14:48.650Z,10.8
2016-04-07T08:15:48.684Z,10.8
2016-04-07T08:16:54.953Z,10.83
2016-04-07T08:17:50.143Z,10.87
2016-04-07T08:19:01.473Z,11.19
2016-04-07T08:19:48.773Z,11.56
2016-04-07T08:20:48.760Z,11.88
2016-04-07T08:21:50.216Z,11.97
2016-04-07T08:22:50.281Z,11.95
2016-04-07T08:23:50.861Z,11.67
2016-04-07T08:25:01.614Z,11.33
2016-04-07T08:25:48.882Z,11.12
2016-04-07T08:27:07.904Z,10.89
2016-04-07T08:27:48.935Z,10.77
2016-04-07T08:28:48.969Z,10.77
2016-04-07T08:29:48.972Z,10.76
2016-04-07T08:30:49.350Z,10.8
2016-04-07T08:31:49.024Z,10.75
2016-04-07T08:32:49.043Z,11.01
2016-04-07T08:34:01.795Z,11.37
2016-04-07T08:34:49.063Z,11.43
2016-04-07T08:35:49.081Z,11.41
2016-04-07T08:36:49.241Z,11.55
2016-04-07T08:37:49.745Z,11.63
2016-04-07T08:38:49.138Z,11.76
2016-04-07T08:39:49.281Z,11.95
2016-04-07T08:41:01.908Z,12.17
2016-04-07T08:41:49.255Z,12.29
2016-04-07T08:42:49.335Z,12.45
2016-04-07T08:44:02.010Z,12.75
2016-04-07T08:45:02.013Z,12.73
2016-04-07T08:46:08.660Z,12.63
2016-04-07T08:46:49.363Z,12.26
2016-04-07T08:48:15.024Z,11.91
2016-04-07T08:48:49.368Z,11.76
2016-04-07T08:49:49.495Z,11.73
2016-04-07T08:50:50.013Z,11.68
2016-04-07T08:51:49.515Z,11.71
2016-04-07T08:52:49.440Z,11.88
2016-04-07T08:53:49.475Z,12.08
2016-04-07T08:54:49.618Z,12.5
2016-04-07T08:55:55.995Z,12.7
2016-04-07T08:56:49.545Z,12.87
2016-04-07T08:58:08.753Z,12.9
2016-04-07T08:58:49.613Z,12.93
2016-04-07T08:59:49.616Z,13.03
2016-04-07T09:01:02.478Z,13.06
2016-04-07T09:03:08.877Z,13.37
2016-04-07T09:03:50.017Z,13.57
2016-04-07T09:05:15.366Z,13.6
2016-04-07T09:05:49.725Z,13.47
2016-04-07T09:06:49.713Z,13.47
2016-04-07T09:08:15.452Z,13.17
2016-04-07T09:08:49.811Z,13.02
2016-04-07T09:10:15.458Z,12.91
2016-04-07T09:10:49.817Z,12.93
2016-04-07T09:11:49.835Z,12.83
2016-04-07T09:12:56.136Z,12.95
2016-04-07T09:13:56.154Z,12.81
2016-04-07T09:14:49.907Z,12.83
2016-04-07T09:15:49.924Z,12.83
2016-04-07T09:16:49.943Z,12.72
2016-04-07T09:17:56.227Z,12.5
2016-04-07T09:18:56.245Z,12.39
2016-04-07T09:19:50.029Z,12.26
2016-04-07T09:21:02.781Z,11.96
2016-04-07T09:21:51.472Z,11.97
2016-04-07T09:22:50.233Z,11.95
2016-04-07T09:23:50.162Z,12.05
2016-04-07T09:24:50.358Z,12.29
2016-04-07T09:26:03.006Z,12.53
2016-04-07T09:26:50.342Z,12.63
2016-04-07T09:28:03.116Z,12.86
2016-04-07T09:29:03.164Z,12.83
2016-04-07T09:30:09.773Z,12.87
2016-04-07T09:31:16.164Z,12.65
2016-04-07T09:31:50.524Z,12.48
2016-04-07T09:33:16.213Z,12.1
2016-04-07T09:34:03.322Z,11.91
2016-04-07T09:34:50.610Z,11.8
2016-04-07T09:35:50.680Z,11.74
2016-04-07T09:36:50.656Z,11.68
2016-04-07T09:38:03.411Z,12.02
2016-04-07T09:38:50.713Z,12.02
2016-04-07T09:40:03.625Z,12.15
2016-04-07T09:40:50.739Z,12.1
2016-04-07T09:41:50.790Z,11.97
2016-04-07T09:42:50.794Z,12.02
2016-04-07T09:43:50.953Z,12.02
2016-04-07T09:44:50.816Z,12.11
2016-04-07T09:45:50.851Z,12.03
2016-04-07T09:46:50.901Z,12.11
2016-04-07T09:47:50.904Z,12.15
2016-04-07T09:48:57.172Z,12.53
2016-04-07T09:49:50.941Z,12.73
2016-04-07T09:50:50.944Z,12.78
2016-04-07T09:52:03.711Z,12.72
2016-04-07T09:52:57.277Z,12.72
2016-04-07T09:54:59.860Z,13.06
2016-04-07T09:55:59.738Z,13.33
2016-04-07T09:56:59.741Z,13.39
2016-04-07T09:57:59.806Z,13.31
2016-04-07T09:59:00.418Z,13.24
2016-04-07T10:00:00.202Z,13.2
2016-04-07T10:00:59.845Z,13.19
2016-04-07T10:01:59.926Z,13.26
2016-04-07T10:02:59.740Z,13.21
2016-04-07T10:04:12.668Z,13.17
2016-04-07T10:05:12.671Z,13.19
2016-04-07T10:06:25.612Z,12.98
2016-04-07T10:07:12.818Z,13.09
2016-04-07T10:08:31.303Z,12.99
2016-04-07T10:09:00.225Z,12.9
2016-04-07T10:11:15.312Z,12.84
2016-04-07T10:12:15.361Z,12.83
2016-04-07T10:13:28.114Z,13.08
2016-04-07T10:14:15.414Z,13.2
2016-04-07T10:15:34.635Z,13.5
2016-04-07T10:16:21.701Z,13.61
2016-04-07T10:17:15.469Z,13.46
2016-04-07T10:18:34.691Z,13.16
2016-04-07T10:19:24.866Z,13.09
2016-04-07T10:20:44.399Z,12.99
2016-04-07T10:21:18.652Z,12.93
2016-04-07T10:22:49.966Z,12.99
2016-04-07T10:23:18.689Z,13.06
2016-04-07T10:24:18.707Z,13.12
2016-04-07T10:25:19.460Z,13.11
2016-04-07T10:26:31.494Z,13.26
2016-04-07T10:27:19.387Z,13.61
2016-04-07T10:28:44.468Z,13.75
2016-04-07T10:29:31.563Z,13.76
2016-04-07T10:30:50.316Z,13.76
2016-04-07T10:31:38.084Z,13.57
2016-04-07T10:32:21.962Z,13.5
2016-04-07T10:33:21.965Z,13.45
2016-04-07T10:34:21.984Z,13.58
2016-04-07T10:35:34.768Z,13.43
2016-04-07T10:36:34.957Z,13.45
2016-04-07T10:37:47.757Z,13.3
2016-04-07T10:38:22.087Z,13.39
2016-04-07T10:39:22.122Z,13.49
2016-04-07T10:40:22.421Z,13.4
2016-04-07T10:41:22.158Z,13.42
2016-04-07T10:42:22.161Z,13.36
2016-04-07T10:43:22.226Z,13.19
2016-04-07T10:44:22.229Z,13.28
2016-04-07T10:45:22.264Z,13.71
2016-04-07T10:46:22.266Z,13.85
2016-04-07T10:47:22.284Z,13.73
2016-04-07T10:48:22.412Z,13.79
2016-04-07T10:49:22.367Z,13.94
2016-04-07T10:50:35.074Z,14.3
2016-04-07T10:51:22.373Z,14.26
2016-04-07T10:52:22.392Z,14.18
2016-04-07T10:53:35.144Z,14.01
2016-04-07T10:54:22.428Z,13.8
2016-04-07T10:55:41.649Z,13.39
2016-04-07T10:56:28.590Z,13.39
2016-04-07T10:57:38.311Z,13.24
2016-04-07T10:58:25.595Z,13.28
2016-04-07T10:59:44.848Z,13.52
2016-04-07T11:00:25.631Z,13.47
2016-04-07T11:01:25.712Z,13.46
2016-04-07T11:02:38.387Z,13.42
2016-04-07T11:03:25.702Z,13.26
2016-04-07T11:04:25.705Z,13.3
2016-04-07T11:05:38.410Z,13.47
2016-04-07T11:06:38.523Z,13.75
2016-04-07T11:08:54.559Z,14.15
2016-04-07T11:09:54.561Z,14.23
2016-04-07T11:11:00.845Z,14.45
2016-04-07T11:12:00.880Z,14.4
2016-04-07T11:12:54.633Z,14.44
2016-04-07T11:13:54.651Z,14.23
2016-04-07T11:15:07.420Z,14.19
2016-04-07T11:15:54.703Z,14.26
2016-04-07T11:16:54.722Z,14.25
2016-04-07T11:17:54.755Z,14.05
2016-04-07T11:18:54.774Z,13.94
2016-04-07T11:20:07.527Z,13.87
2016-04-07T11:20:54.826Z,13.82
2016-04-07T11:21:54.845Z,13.82
2016-04-07T11:22:54.706Z,13.68
2016-04-07T11:23:55.459Z,13.62
2016-04-07T11:24:54.899Z,13.6
2016-04-07T11:25:54.902Z,13.67
2016-04-07T11:26:54.951Z,13.68
2016-04-07T11:27:54.969Z,13.71
2016-04-07T11:28:55.613Z,13.87
2016-04-07T11:30:07.757Z,13.83
2016-04-07T11:30:55.385Z,13.8
2016-04-07T11:33:04.593Z,13.55
2016-04-07T11:34:04.627Z,13.36
2016-04-07T11:36:07.273Z,12.95
2016-04-07T11:36:19.823Z,12.93
2016-04-07T11:37:19.871Z,12.99
2016-04-07T11:38:26.140Z,12.83
2016-04-07T11:39:19.893Z,12.75
2016-04-07T11:40:32.646Z,12.73
2016-04-07T11:41:19.976Z,12.72
2016-04-07T11:42:39.151Z,12.9
2016-04-07T11:43:32.748Z,12.9
2016-04-07T11:45:22.628Z,12.75
2016-04-07T11:45:47.940Z,12.75
2016-04-07T11:46:35.225Z,12.72
2016-04-07T11:47:54.461Z,12.72
2016-04-07T11:48:41.386Z,12.72
2016-04-07T11:50:35.328Z,12.48
2016-04-07T11:50:47.906Z,12.5
2016-04-07T11:51:48.003Z,12.39
2016-04-07T11:52:47.944Z,12.15
2016-04-07T11:53:48.118Z,12.08
2016-04-07T11:54:48.621Z,11.93
2016-04-07T11:55:48.014Z,11.8
2016-04-07T11:57:00.767Z,11.65
2016-04-07T11:57:48.066Z,11.55
2016-04-07T11:58:48.053Z,11.51
2016-04-07T11:59:48.103Z,11.43
2016-04-07T12:00:48.137Z,11.37
2016-04-07T12:02:00.874Z,11.35
2016-04-07T12:02:48.752Z,11.34
2016-04-07T12:03:48.176Z,11.34
2016-04-07T12:04:48.226Z,11.27
2016-04-07T12:05:48.854Z,11.3
2016-04-07T12:06:48.293Z,11.34
2016-04-07T12:08:00.984Z,11.34
2016-04-07T12:08:48.893Z,11.31
2016-04-07T12:10:07.504Z,11.44
2016-04-07T12:11:01.070Z,11.68
2016-04-07T12:12:13.809Z,12.14
2016-04-07T12:12:48.356Z,12.51
2016-04-07T12:15:01.143Z,13.24
2016-04-07T12:15:48.412Z,13.13
2016-04-07T12:16:48.430Z,13.12
2016-04-07T12:17:48.479Z,13.21
2016-04-07T12:18:54.747Z,13.16
2016-04-07T12:19:48.531Z,13.09
2016-04-07T12:21:07.737Z,13.02
2016-04-07T12:21:49.005Z,13.01
2016-04-07T12:23:14.229Z,12.98
2016-04-07T12:23:57.948Z,12.73
2016-04-07T12:25:10.688Z,12.63
2016-04-07T12:26:10.847Z,12.4
2016-04-07T12:26:58.019Z,12.28
2016-04-07T12:28:17.274Z,12.08
2016-04-07T12:29:23.793Z,12.07
2016-04-07T12:30:23.811Z,12
2016-04-07T12:31:33.376Z,11.95
2016-04-07T12:32:33.410Z,11.89
2016-04-07T12:33:39.693Z,11.97
2016-04-07T12:34:33.431Z,12.08
2016-04-07T12:35:39.762Z,12.11
2016-04-07T12:36:33.702Z,12.32
2016-04-07T12:37:33.533Z,12.5
2016-04-07T12:38:39.785Z,12.72
2016-04-07T12:39:33.538Z,12.87
2016-04-07T12:40:46.275Z,13.11
2016-04-07T12:41:39.856Z,13.17
2016-04-07T12:42:33.609Z,13.23
2016-04-07T12:43:33.643Z,13.33
2016-04-07T12:44:33.646Z,13.24
2016-04-07T12:45:39.914Z,13.2
2016-04-07T12:46:39.932Z,13.21
2016-04-07T12:47:52.919Z,13.19
2016-04-07T12:48:33.734Z,13.2
2016-04-07T12:49:59.408Z,13.09
2016-04-07T12:51:09.258Z,13.01
2016-04-07T12:52:09.164Z,13.03
2016-04-07T12:53:50.045Z,12.93
2016-04-07T12:54:18.750Z,12.99
2016-04-07T12:55:18.675Z,13.05
2016-04-07T12:56:18.822Z,13.27
2016-04-07T12:57:25.089Z,13.67
2016-04-07T12:58:25.108Z,13.79
2016-04-07T12:59:38.079Z,13.54
2016-04-07T13:00:18.988Z,13.62
2016-04-07T13:01:20.397Z,13.27
2016-04-07T13:02:19.025Z,13.27
2016-04-07T13:03:38.152Z,13.27
2016-04-07T13:04:19.593Z,13.47
2016-04-07T13:05:50.299Z,13.97
2016-04-07T13:06:31.754Z,14.08
2016-04-07T13:07:19.054Z,14.23
2016-04-07T13:08:25.354Z,14.28
2016-04-07T13:09:19.090Z,13.98
2016-04-07T13:10:19.140Z,13.97
2016-04-07T13:11:19.752Z,13.86
2016-04-07T13:12:31.879Z,13.83
2016-04-07T13:13:19.212Z,13.91
2016-04-07T13:14:38.417Z,13.97
2016-04-07T13:15:19.217Z,13.83
2016-04-07T13:16:44.937Z,13.47
2016-04-07T13:17:19.300Z,13.39
2016-04-07T13:18:19.286Z,13.06
2016-04-07T13:19:19.336Z,12.9
2016-04-07T13:20:19.323Z,12.75
2016-04-07T13:21:19.357Z,12.63
2016-04-07T13:22:19.986Z,12.43
2016-04-07T13:23:32.128Z,12.28
2016-04-07T13:24:19.412Z,12.17
2016-04-07T13:25:19.494Z,12.18
2016-04-07T13:26:19.574Z,12.07
2016-04-07T13:27:19.514Z,11.95
2016-04-07T13:28:19.505Z,12.02
2016-04-07T13:29:19.540Z,12.15
2016-04-07T13:30:20.168Z,12.73
2016-04-07T13:31:19.577Z,12.87
2016-04-07T13:32:19.580Z,13.09
2016-04-07T13:33:19.723Z,13.17
2016-04-07T13:34:19.647Z,13.23
2016-04-07T13:35:19.665Z,13.27
2016-04-07T13:36:32.387Z,13.19
2016-04-07T13:37:25.983Z,13.26
2016-04-07T13:38:32.470Z,13.2
2016-04-07T13:39:19.770Z,13.13
2016-04-07T13:40:19.788Z,12.98
2016-04-07T13:41:19.901Z,13.02
2016-04-07T13:42:19.809Z,12.84
2016-04-07T13:43:26.093Z,12.5
2016-04-07T13:44:19.862Z,12.4
2016-04-07T13:45:19.880Z,12.32
2016-04-07T13:46:19.914Z,12.51
2016-04-07T13:47:19.916Z,12.73
2016-04-07T13:48:19.950Z,12.84
2016-04-07T13:49:19.953Z,13.01